createdAt,value
2023-04-28T00:00:54.995Z,11.16
2023-04-28T00:03:22.682Z,10.92
2023-04-28T00:05:50.544Z,10.76
2023-04-28T00:08:21.682Z,10.69
2023-04-28T00:10:49.452Z,10.60
2023-04-28T00:13:17.091Z,10.43
2023-04-28T00:15:44.667Z,10.24
2023-04-28T00:18:12.595Z,10.05
2023-04-28T00:20:40.326Z,10.13
2023-04-28T00:23:07.947Z,10.15
2023-04-28T00:25:36.949Z,10.19
2023-04-28T00:28:04.823Z,10.24
2023-04-28T00:30:32.444Z,10.20
2023-04-28T00:33:00.209Z,10.10
2023-04-28T00:35:27.898Z,10.13
2023-04-28T00:37:55.479Z,10.28
2023-04-28T00:40:23.180Z,10.19
2023-04-28T00:42:52.124Z,10.17
2023-04-28T00:45:19.852Z,10.19
2023-04-28T00:47:47.511Z,10.19
2023-04-28T00:50:15.205Z,10.23
2023-04-28T00:52:44.420Z,10.21
2023-04-28T00:55:12.835Z,10.18
2023-04-28T00:57:40.555Z,10.14
2023-04-28T01:00:11.003Z,10.14
2023-04-28T01:02:39.022Z,10.09
2023-04-28T01:05:07.748Z,10.15
2023-04-28T01:07:35.800Z,10.19
2023-04-28T01:10:04.117Z,10.19
2023-04-28T01:12:32.062Z,10.09
2023-04-28T01:15:00.675Z,10.09
2023-04-28T01:17:29.887Z,10.14
2023-04-28T01:19:57.528Z,10.15
2023-04-28T01:22:25.169Z,10.17
2023-04-28T01:24:54.234Z,10.21
2023-04-28T01:27:23.380Z,10.21
2023-04-28T01:29:51.016Z,10.16
2023-04-28T01:32:18.897Z,10.16
2023-04-28T01:34:47.561Z,10.14
2023-04-28T01:37:15.668Z,10.11
2023-04-28T01:39:43.262Z,10.17
2023-04-28T01:42:12.247Z,10.11
2023-04-28T01:44:40.154Z,10.12
2023-04-28T01:47:07.802Z,10.15
2023-04-28T01:49:35.538Z,10.14
2023-04-28T01:52:03.258Z,10.13
2023-04-28T01:54:30.988Z,10.02
2023-04-28T01:56:58.599Z,10.04
2023-04-28T01:59:27.538Z,10.09
2023-04-28T02:01:55.420Z,10.11
2023-04-28T02:04:23.334Z,10.16
2023-04-28T02:06:51.666Z,10.19
2023-04-28T02:09:19.585Z,10.22
2023-04-28T02:11:47.223Z,10.26
2023-04-28T02:14:15.003Z,10.21
2023-04-28T02:16:44.328Z,10.24
2023-04-28T02:19:11.944Z,10.13
2023-04-28T02:21:39.648Z,10.11
2023-04-28T02:24:08.543Z,10.14
2023-04-28T02:26:36.476Z,10.13
2023-04-28T02:29:04.699Z,10.23
2023-04-28T02:31:33.164Z,10.33
2023-04-28T02:34:02.695Z,10.28
2023-04-28T02:36:30.363Z,10.26
2023-04-28T02:38:58.028Z,10.31
2023-04-28T02:41:26.381Z,10.24
2023-04-28T02:43:53.949Z,10.28
2023-04-28T02:46:21.609Z,10.26
2023-04-28T02:48:49.484Z,10.27
2023-04-28T02:51:18.426Z,10.24
2023-04-28T02:53:46.826Z,10.24
2023-04-28T02:56:14.606Z,10.21
2023-04-28T02:58:42.222Z,10.18
2023-04-28T03:01:09.979Z,10.19
2023-04-28T03:03:37.714Z,10.20
2023-04-28T03:06:06.351Z,10.23
2023-04-28T03:08:35.613Z,10.38
2023-04-28T03:11:03.272Z,10.40
2023-04-28T03:13:31.659Z,10.31
2023-04-28T03:15:59.427Z,10.31
2023-04-28T03:18:27.108Z,10.27
2023-04-28T03:20:54.767Z,10.28
2023-04-28T03:23:22.487Z,10.33
2023-04-28T03:25:51.530Z,10.36
2023-04-28T03:28:19.509Z,10.29
2023-04-28T03:30:47.134Z,10.33
2023-04-28T03:33:14.763Z,10.41
2023-04-28T03:35:42.409Z,10.48
2023-04-28T03:38:10.062Z,10.46
2023-04-28T03:40:38.010Z,10.43
2023-04-28T03:43:07.364Z,10.52
2023-04-28T03:45:35.790Z,10.42
2023-04-28T03:48:03.478Z,10.37
2023-04-28T03:50:31.263Z,10.35
2023-04-28T03:52:58.860Z,10.32
2023-04-28T03:55:27.050Z,10.49
2023-04-28T03:57:54.757Z,10.42
2023-04-28T04:00:23.772Z,10.39
2023-04-28T04:02:51.537Z,10.36
2023-04-28T04:05:19.446Z,10.46
2023-04-28T04:07:47.232Z,10.53
2023-04-28T04:10:14.851Z,10.68
2023-04-28T04:12:42.433Z,10.86
2023-04-28T04:15:11.079Z,10.77
2023-04-28T04:17:40.337Z,10.87
2023-04-28T04:20:09.321Z,10.83
2023-04-28T04:22:36.991Z,10.86
2023-04-28T04:25:05.292Z,11.02
2023-04-28T04:27:33.176Z,11.25
2023-04-28T04:30:00.844Z,11.39
2023-04-28T04:32:28.500Z,11.38
2023-04-28T04:34:57.566Z,11.30
2023-04-28T04:37:25.373Z,11.27
2023-04-28T04:39:53.079Z,11.29
2023-04-28T04:42:25.487Z,11.14
2023-04-28T04:44:53.962Z,11.19
2023-04-28T04:47:21.643Z,11.12
2023-04-28T04:49:49.843Z,11.10
2023-04-28T04:52:19.731Z,11.06
2023-04-28T04:54:47.378Z,11.09
2023-04-28T04:57:15.066Z,11.04
2023-04-28T04:59:42.671Z,11.07
2023-04-28T05:02:10.916Z,11.06
2023-04-28T05:04:38.844Z,11.08
2023-04-28T05:07:06.709Z,11.05
2023-04-28T05:09:35.894Z,11.08
2023-04-28T05:12:03.971Z,11.09
2023-04-28T05:14:31.643Z,11.05
2023-04-28T05:16:59.474Z,11.02
2023-04-28T05:19:27.220Z,11.11
2023-04-28T05:21:55.046Z,11.08
2023-04-28T05:24:23.537Z,11.05
2023-04-28T05:26:53.978Z,11.09
2023-04-28T05:29:21.829Z,11.10
2023-04-28T05:31:49.747Z,11.11
2023-04-28T05:34:17.798Z,11.10
2023-04-28T05:36:48.664Z,11.12
2023-04-28T05:39:16.698Z,11.26
2023-04-28T05:41:44.485Z,11.29
2023-04-28T05:44:13.841Z,11.32
2023-04-28T05:46:41.725Z,11.50
2023-04-28T05:49:11.506Z,11.43
2023-04-28T05:51:39.579Z,11.44
2023-04-28T05:54:07.268Z,11.54
2023-04-28T05:56:34.891Z,11.44
2023-04-28T05:59:04.250Z,11.34
2023-04-28T06:01:33.696Z,11.46
2023-04-28T06:04:01.661Z,11.69
2023-04-28T06:06:29.593Z,11.57
2023-04-28T06:08:57.507Z,11.65
2023-04-28T06:11:25.117Z,11.75
2023-04-28T06:13:52.941Z,11.56
2023-04-28T06:16:21.537Z,11.63
2023-04-28T06:18:50.945Z,11.63
2023-04-28T06:21:18.790Z,11.63
2023-04-28T06:23:46.530Z,11.45
2023-04-28T06:26:16.194Z,11.91
2023-04-28T06:28:45.307Z,12.06
2023-04-28T06:31:12.942Z,11.88
2023-04-28T06:33:40.873Z,11.94
2023-04-28T06:36:13.885Z,11.95
2023-04-28T06:38:42.921Z,11.84
2023-04-28T06:41:11.365Z,11.94
2023-04-28T06:43:39.421Z,12.00
2023-04-28T06:46:07.460Z,12.02
2023-04-28T06:48:35.321Z,11.94
2023-04-28T06:51:03.528Z,11.96
2023-04-28T06:53:32.455Z,11.72
2023-04-28T06:56:00.178Z,11.50
2023-04-28T06:58:27.996Z,11.44
2023-04-28T07:00:55.732Z,11.39
2023-04-28T07:03:23.523Z,11.51
2023-04-28T07:05:51.555Z,11.98
2023-04-28T07:08:19.229Z,12.41
2023-04-28T07:10:48.455Z,12.57
2023-04-28T07:13:16.350Z,12.73
2023-04-28T07:15:44.027Z,12.80
2023-04-28T07:18:11.774Z,13.10
2023-04-28T07:20:39.501Z,12.83
2023-04-28T07:23:07.195Z,13.16
2023-04-28T07:25:35.209Z,13.11
2023-04-28T07:28:06.316Z,12.81
2023-04-28T07:30:34.474Z,13.16
2023-04-28T07:33:02.520Z,12.88
2023-04-28T07:35:30.241Z,13.04
2023-04-28T07:37:58.214Z,12.91
2023-04-28T07:40:25.983Z,13.01
2023-04-28T07:42:54.287Z,13.31
2023-04-28T07:45:23.394Z,13.47
2023-04-28T07:47:51.357Z,13.31
2023-04-28T07:50:19.168Z,13.55
2023-04-28T07:52:46.854Z,13.59
2023-04-28T07:55:14.615Z,13.53
2023-04-28T07:57:42.514Z,13.26
2023-04-28T08:00:11.506Z,13.10
2023-04-28T08:02:40.830Z,13.47
2023-04-28T08:05:09.547Z,14.02
2023-04-28T08:07:38.386Z,14.25
2023-04-28T08:10:06.806Z,14.22
2023-04-28T08:12:34.522Z,14.03
2023-04-28T08:15:02.724Z,13.96
2023-04-28T08:17:31.035Z,13.99
2023-04-28T08:20:00.218Z,14.06
2023-04-28T08:22:28.167Z,14.17
2023-04-28T08:24:56.012Z,14.18
2023-04-28T08:27:25.647Z,14.45
2023-04-28T08:29:53.835Z,14.40
2023-04-28T08:32:21.531Z,14.50
2023-04-28T08:34:49.125Z,14.44
2023-04-28T08:37:18.561Z,14.41
2023-04-28T08:39:46.444Z,14.28
2023-04-28T08:42:14.755Z,14.07
2023-04-28T08:44:42.395Z,14.18
2023-04-28T08:47:13.762Z,14.19
2023-04-28T08:49:42.399Z,14.24
2023-04-28T08:52:12.568Z,14.28
2023-04-28T08:54:42.085Z,14.49
2023-04-28T08:57:11.016Z,14.54
2023-04-28T08:59:42.500Z,14.62
2023-04-28T09:02:10.897Z,14.60
2023-04-28T09:04:39.352Z,14.74
2023-04-28T09:07:12.312Z,14.92
2023-04-28T09:09:41.750Z,15.05
2023-04-28T09:12:09.575Z,15.20
2023-04-28T09:14:38.807Z,15.20
2023-04-28T09:17:11.954Z,15.32
2023-04-28T09:19:42.928Z,15.47
2023-04-28T09:22:25.746Z,15.58
2023-04-28T09:24:56.201Z,15.60
2023-04-28T09:27:28.956Z,15.59
2023-04-28T09:29:56.825Z,15.88
2023-04-28T09:32:27.602Z,15.60
2023-04-28T09:34:57.422Z,15.62
2023-04-28T09:37:27.314Z,15.18
2023-04-28T09:39:56.590Z,15.31
2023-04-28T09:42:34.933Z,15.17
2023-04-28T09:45:04.636Z,15.10
2023-04-28T09:47:35.051Z,15.23
2023-04-28T09:50:04.516Z,15.06
2023-04-28T09:52:33.253Z,14.96
2023-04-28T09:55:03.707Z,15.03
2023-04-28T09:57:33.478Z,15.06
2023-04-28T10:00:02.696Z,15.00
2023-04-28T10:05:02.253Z,15.18
2023-04-28T10:07:30.957Z,15.25
2023-04-28T10:09:59.540Z,15.28
2023-04-28T10:12:29.102Z,15.37
2023-04-28T10:14:57.220Z,15.50
2023-04-28T10:17:27.453Z,15.49
2023-04-28T10:19:55.855Z,15.73
2023-04-28T10:22:45.403Z,15.70
2023-04-28T10:25:27.879Z,15.72
2023-04-28T10:27:58.573Z,15.84
2023-04-28T10:30:29.587Z,15.91
2023-04-28T10:33:26.489Z,15.95
2023-04-28T10:35:55.080Z,15.91
2023-04-28T10:38:22.889Z,15.99
2023-04-28T10:40:52.297Z,16.37
2023-04-28T10:43:39.611Z,16.75
2023-04-28T10:46:11.831Z,17.00
2023-04-28T10:49:07.694Z,16.87
2023-04-28T10:51:36.140Z,17.13
2023-04-28T10:54:20.510Z,16.92
2023-04-28T10:57:17.447Z,16.81
2023-04-28T10:59:46.744Z,16.69
2023-04-28T11:02:39.015Z,15.96
2023-04-28T11:05:13.177Z,16.66
2023-04-28T11:07:41.050Z,16.85
2023-04-28T11:10:09.780Z,16.98
2023-04-28T11:12:37.459Z,16.67
2023-04-28T11:15:15.053Z,16.49
2023-04-28T11:17:43.510Z,16.89
2023-04-28T11:20:14.529Z,16.65
2023-04-28T11:22:42.874Z,16.64
2023-04-28T11:25:10.922Z,16.52
2023-04-28T11:27:38.710Z,16.70
2023-04-28T11:30:22.247Z,16.58
2023-04-28T11:32:51.641Z,16.34
2023-04-28T11:35:19.449Z,16.05
2023-04-28T11:37:47.228Z,16.22
2023-04-28T11:40:16.512Z,15.49
2023-04-28T11:42:48.866Z,16.07
2023-04-28T11:45:18.200Z,16.28
2023-04-28T11:47:45.965Z,16.00
2023-04-28T11:50:15.710Z,15.85
2023-04-28T11:52:53.757Z,16.30
2023-04-28T11:55:21.874Z,15.86
2023-04-28T11:57:49.738Z,15.88
2023-04-28T12:00:22.399Z,16.08
2023-04-28T12:02:50.980Z,16.28
2023-04-28T12:05:20.789Z,15.66
2023-04-28T12:07:48.551Z,15.92
2023-04-28T12:10:17.668Z,16.31
2023-04-28T12:12:51.781Z,16.55
2023-04-28T12:15:24.749Z,16.71
2023-04-28T12:17:52.696Z,16.48
2023-04-28T12:20:37.459Z,16.40
2023-04-28T12:23:05.822Z,16.92
2023-04-28T12:25:35.296Z,16.86
2023-04-28T12:28:04.995Z,17.16
2023-04-28T12:30:36.144Z,16.73
2023-04-28T12:33:04.305Z,16.47
2023-04-28T12:35:33.297Z,16.87
2023-04-28T12:38:01.136Z,16.77
2023-04-28T12:40:29.033Z,16.69
2023-04-28T12:42:56.881Z,17.19
2023-04-28T12:45:24.764Z,17.70
2023-04-28T12:47:53.814Z,17.66
2023-04-28T12:50:21.744Z,17.67
2023-04-28T12:52:49.528Z,17.78
2023-04-28T12:55:17.476Z,18.51
2023-04-28T12:57:45.257Z,17.92
2023-04-28T13:00:16.289Z,18.41
2023-04-28T13:02:44.277Z,18.18
2023-04-28T13:05:14.359Z,18.41
2023-04-28T13:07:42.156Z,18.19
2023-04-28T13:10:10.740Z,18.04
2023-04-28T13:12:38.430Z,17.96
2023-04-28T13:15:07.529Z,18.17
2023-04-28T13:17:35.665Z,17.86
2023-04-28T13:20:05.138Z,18.17
2023-04-28T13:22:34.322Z,18.87
2023-04-28T13:25:02.083Z,18.98
2023-04-28T13:27:30.782Z,18.65
2023-04-28T13:29:59.193Z,18.58
2023-04-28T13:32:27.905Z,18.84
2023-04-28T13:34:55.709Z,19.26
2023-04-28T13:37:23.425Z,19.66
2023-04-28T13:39:52.470Z,19.96
2023-04-28T13:42:20.183Z,20.13
2023-04-28T13:44:49.237Z,20.21
2023-04-28T13:47:17.019Z,20.55
2023-04-28T13:49:44.696Z,20.34
2023-04-28T13:52:12.339Z,20.28
2023-04-28T13:54:40.324Z,19.89
2023-04-28T13:57:09.506Z,19.36
2023-04-28T13:59:37.283Z,18.88
2023-04-28T14:02:05.141Z,18.97
2023-04-28T14:04:33.086Z,18.29
2023-04-28T14:07:01.393Z,18.03
2023-04-28T14:09:29.376Z,18.04
2023-04-28T14:11:58.375Z,18.15
2023-04-28T14:14:27.420Z,18.22
2023-04-28T14:16:55.197Z,17.91
2023-04-28T14:19:24.253Z,17.41
2023-04-28T14:21:52.149Z,17.35
2023-04-28T14:24:20.200Z,17.47
2023-04-28T14:26:49.510Z,17.29
2023-04-28T14:29:17.279Z,16.98
2023-04-28T14:31:46.535Z,16.79
2023-04-28T14:34:14.336Z,16.56
2023-04-28T14:36:42.311Z,16.70
2023-04-28T14:39:09.987Z,17.01
2023-04-28T14:41:37.857Z,17.17
2023-04-28T14:44:06.194Z,16.80
2023-04-28T14:46:34.017Z,16.95
2023-04-28T14:49:03.774Z,16.83
2023-04-28T14:51:31.689Z,17.28
2023-04-28T14:53:59.478Z,17.46
2023-04-28T14:56:27.648Z,17.49
2023-04-28T14:58:55.305Z,17.68
2023-04-28T15:01:23.223Z,17.77
2023-04-28T15:03:51.167Z,17.66
2023-04-28T15:06:20.320Z,17.41
2023-04-28T15:08:47.948Z,17.69
2023-04-28T15:11:15.697Z,18.34
2023-04-28T15:13:43.390Z,18.81
2023-04-28T15:16:11.267Z,18.85
2023-04-28T15:18:39.343Z,18.57
2023-04-28T15:21:07.463Z,18.65
2023-04-28T15:23:36.736Z,19.23
2023-04-28T15:26:04.966Z,19.36
2023-04-28T15:28:33.204Z,19.79
2023-04-28T15:31:01.312Z,20.03
2023-04-28T15:33:29.112Z,19.40
2023-04-28T15:35:56.777Z,19.71
2023-04-28T15:38:24.433Z,19.47
2023-04-28T15:40:53.461Z,19.79
2023-04-28T15:43:21.496Z,19.44
2023-04-28T15:45:49.297Z,19.04
2023-04-28T15:48:16.918Z,18.82
2023-04-28T15:50:44.883Z,18.80
2023-04-28T15:53:12.485Z,19.16
2023-04-28T15:55:40.135Z,19.05
2023-04-28T15:58:10.859Z,19.03
2023-04-28T16:00:40.537Z,19.30
2023-04-28T16:03:08.301Z,19.15
2023-04-28T16:05:36.220Z,19.36
2023-04-28T16:08:04.080Z,19.24
2023-04-28T16:10:31.872Z,19.60
2023-04-28T16:12:59.545Z,19.77
2023-04-28T16:15:28.524Z,19.77
2023-04-28T16:17:56.870Z,19.90
2023-04-28T16:20:24.732Z,20.08
2023-04-28T16:22:53.235Z,19.99
2023-04-28T16:25:20.969Z,20.07
2023-04-28T16:27:48.716Z,20.35
2023-04-28T16:30:16.354Z,20.24
2023-04-28T16:32:46.944Z,20.29
2023-04-28T16:35:15.484Z,19.85
2023-04-28T16:37:44.045Z,20.05
2023-04-28T16:40:13.209Z,19.96
2023-04-28T16:42:42.019Z,19.92
2023-04-28T16:45:11.024Z,19.68
2023-04-28T16:47:42.409Z,19.54
2023-04-28T16:50:14.448Z,19.60
2023-04-28T16:52:42.251Z,19.41
2023-04-28T16:55:10.933Z,19.44
2023-04-28T16:57:38.572Z,19.33
2023-04-28T17:00:07.772Z,19.43
2023-04-28T17:02:35.601Z,19.29
2023-04-28T17:05:03.447Z,19.37
2023-04-28T17:07:32.480Z,18.99
2023-04-28T17:10:00.711Z,19.13
2023-04-28T17:12:28.528Z,19.23
2023-04-28T17:14:56.380Z,19.00
2023-04-28T17:17:24.118Z,19.21
2023-04-28T17:19:52.127Z,19.11
2023-04-28T17:22:19.840Z,19.14
2023-04-28T17:24:48.907Z,19.27
2023-04-28T17:27:17.237Z,19.34
2023-04-28T17:29:44.933Z,19.42
2023-04-28T17:32:14.881Z,19.33
2023-04-28T17:34:42.750Z,19.11
2023-04-28T17:37:37.165Z,18.57
2023-04-28T17:40:08.065Z,18.54
2023-04-28T17:42:35.869Z,18.66
2023-04-28T17:45:04.591Z,18.36
2023-04-28T17:47:32.464Z,18.22
2023-04-28T17:50:00.589Z,18.26
2023-04-28T17:52:28.308Z,18.12
2023-04-28T17:54:57.336Z,18.21
2023-04-28T17:57:26.471Z,18.14
2023-04-28T17:59:54.322Z,18.00
2023-04-28T18:02:22.093Z,17.87
2023-04-28T18:04:50.899Z,17.88
2023-04-28T18:07:19.305Z,17.60
2023-04-28T18:09:47.055Z,17.63
2023-04-28T18:12:14.891Z,17.42
2023-04-28T18:14:44.346Z,17.54
2023-04-28T18:17:12.282Z,17.83
2023-04-28T18:19:40.316Z,17.79
2023-04-28T18:22:08.269Z,17.90
2023-04-28T18:24:36.298Z,17.72
2023-04-28T18:27:05.263Z,17.73
2023-04-28T18:29:32.994Z,17.57
2023-04-28T18:32:02.218Z,17.35
2023-04-28T18:34:30.234Z,17.63
2023-04-28T18:36:58.052Z,17.57
2023-04-28T18:39:25.849Z,17.53
2023-04-28T18:41:53.616Z,17.46
2023-04-28T18:44:21.381Z,17.22
2023-04-28T18:46:51.900Z,17.21
2023-04-28T18:49:21.680Z,16.76
2023-04-28T18:51:49.481Z,16.74
2023-04-28T18:54:17.396Z,16.66
2023-04-28T18:56:45.460Z,16.51
2023-04-28T18:59:13.717Z,16.33
2023-04-28T19:01:41.424Z,16.17
2023-04-28T19:04:09.425Z,16.05
2023-04-28T19:06:39.049Z,16.03
2023-04-28T19:09:07.189Z,15.96
2023-04-28T19:11:34.958Z,15.84
2023-04-28T19:14:02.827Z,15.77
2023-04-28T19:16:30.639Z,15.61
2023-04-28T19:18:58.411Z,15.52
2023-04-28T19:21:26.713Z,15.46
2023-04-28T19:23:55.840Z,15.38
2023-04-28T19:26:24.140Z,15.36
2023-04-28T19:28:52.000Z,15.30
2023-04-28T19:31:19.855Z,15.25
2023-04-28T19:33:47.618Z,15.19
2023-04-28T19:36:15.352Z,15.15
2023-04-28T19:38:43.158Z,15.08
2023-04-28T19:41:12.255Z,15.00
2023-04-28T19:43:40.697Z,14.90
2023-04-28T19:46:09.021Z,14.89
2023-04-28T19:48:36.893Z,14.77
2023-04-28T19:51:04.929Z,14.79
2023-04-28T19:53:33.864Z,14.80
2023-04-28T19:56:02.098Z,14.75
2023-04-28T19:58:31.699Z,14.68
2023-04-28T20:00:59.423Z,14.72
2023-04-28T20:03:27.324Z,14.73
2023-04-28T20:05:55.454Z,14.65
2023-04-28T20:08:25.568Z,14.67
2023-04-28T20:10:54.829Z,14.66
2023-04-28T20:13:22.656Z,14.67
2023-04-28T20:15:51.880Z,14.65
2023-04-28T20:18:19.890Z,14.61
2023-04-28T20:20:47.483Z,14.50
2023-04-28T20:23:15.365Z,14.51
2023-04-28T20:25:42.982Z,14.43
2023-04-28T20:28:10.653Z,14.46
2023-04-28T20:30:38.605Z,14.41
2023-04-28T20:33:07.774Z,14.36
2023-04-28T20:35:35.479Z,14.27
2023-04-28T20:38:03.290Z,14.24
2023-04-28T20:40:30.922Z,14.15
2023-04-28T20:43:01.626Z,14.12
2023-04-28T20:45:29.796Z,14.03
2023-04-28T20:47:57.605Z,14.00
2023-04-28T20:50:28.314Z,13.94
2023-04-28T20:52:55.969Z,13.89
2023-04-28T20:55:23.731Z,13.87
2023-04-28T20:57:51.562Z,13.87
2023-04-28T21:00:19.224Z,13.86
2023-04-28T21:02:47.119Z,13.85
2023-04-28T21:05:15.430Z,13.77
2023-04-28T21:07:44.680Z,13.76
2023-04-28T21:10:12.878Z,13.70
2023-04-28T21:12:41.393Z,13.75
2023-04-28T21:15:09.994Z,13.73
2023-04-28T21:17:37.660Z,13.76
2023-04-28T21:20:06.411Z,13.86
2023-04-28T21:22:34.596Z,13.86
2023-04-28T21:25:03.861Z,13.93
2023-04-28T21:27:31.477Z,13.96
2023-04-28T21:29:59.260Z,14.01
2023-04-28T21:32:26.932Z,14.09
2023-04-28T21:34:54.831Z,14.08
2023-04-28T21:37:22.495Z,14.12
2023-04-28T21:39:50.582Z,14.13
2023-04-28T21:42:19.685Z,14.16
2023-04-28T21:44:47.520Z,14.06
2023-04-28T21:47:16.644Z,14.03
2023-04-28T21:49:44.689Z,14.02
2023-04-28T21:52:12.367Z,14.04
2023-04-28T21:54:40.099Z,13.99
2023-04-28T21:57:08.311Z,13.95
2023-04-28T21:59:37.328Z,13.95
2023-04-28T22:02:06.166Z,13.99
2023-04-28T22:04:34.862Z,14.07
2023-04-28T22:07:03.792Z,13.88
2023-04-28T22:09:33.151Z,13.71
2023-04-28T22:12:00.801Z,13.77
2023-04-28T22:14:40.666Z,13.76
2023-04-28T22:17:10.623Z,13.70
2023-04-28T22:19:38.341Z,13.72
2023-04-28T22:22:07.811Z,13.72
2023-04-28T22:24:35.561Z,13.61
2023-04-28T22:27:03.719Z,13.57
2023-04-28T22:29:31.351Z,13.53
2023-04-28T22:31:59.575Z,13.48
2023-04-28T22:34:28.837Z,13.38
2023-04-28T22:36:56.996Z,13.28
2023-04-28T22:39:27.032Z,13.23
2023-04-28T22:41:54.886Z,13.20
2023-04-28T22:44:22.516Z,13.18
2023-04-28T22:46:50.464Z,13.07
2023-04-28T22:49:20.290Z,12.96
2023-04-28T22:51:49.306Z,12.91
2023-04-28T22:54:17.284Z,12.84
2023-04-28T22:56:44.908Z,12.78
2023-04-28T22:59:12.772Z,12.78
2023-04-28T23:01:40.676Z,12.76
2023-04-28T23:04:08.486Z,12.55
2023-04-28T23:06:36.802Z,12.38
2023-04-28T23:09:05.844Z,12.83
2023-04-28T23:11:33.481Z,13.03
2023-04-28T23:14:01.457Z,13.02
2023-04-28T23:16:29.114Z,13.05
2023-04-28T23:18:56.900Z,12.98
2023-04-28T23:21:24.580Z,12.89
2023-04-28T23:23:52.678Z,12.85
2023-04-28T23:26:21.820Z,12.68
2023-04-28T23:28:49.576Z,12.57
2023-04-28T23:31:17.425Z,12.59
2023-04-28T23:33:45.152Z,12.49
2023-04-28T23:36:13.691Z,12.55
2023-04-28T23:38:41.713Z,12.51
2023-04-28T23:41:09.360Z,12.46
2023-04-28T23:43:38.422Z,12.35
2023-04-28T23:46:06.687Z,12.36
2023-04-28T23:48:34.857Z,12.32
2023-04-28T23:51:02.557Z,12.34
2023-04-28T23:53:30.263Z,12.27
2023-04-28T23:55:57.901Z,12.26
2023-04-28T23:58:25.645Z,12.21
